Norwegian Sky — C6PZ8 — position and weather

sailwx.info

Track history (hours):
 
Tides and Currents Weather Stations Pressure Air Temp Water Temp Dewpoint Dewpoint Depression Visibility Wind Speed Wind Dir Waves Ship Positions

Norwegian Sky (Norway)

Operator: Norwegian Cruise Line

Last reported at 2017-Mar-30 06:00 UTC. Time now 2017-Mar-30 14:44 UTC.
Position N 26°00' W 077°48'.

Length 259 m; draft 8 m.

Type: Ship. MMSI: 308865000.

Wind from 080 at 8 knots

Barometer 1018.0 mb
Air temperature 22.0 ° C
Visibility: greater than 10.8 NM

Date/timePositionNaut miles runAvg speedWind from/ knotsBaromVisibWave heightAir tempDewpointWater temp
2017-Mar-30 06:00N 26°00' W 077°48'32 8.1 080 / 81018.010.8 22.0
2017-Mar-30 02:00N 25°36' W 077°24'5 0.3 050 / 71017.010.8 22.0
2017-Mar-29 07:00N 25°36' W 077°30'44 8.8 110 / 121017.010.8 22.0
2017-Mar-29 02:00N 26°06' W 078°06'37 9.2 090 / 101020.010.8 21.0
2017-Mar-28 22:00N 26°24' W 078°42'40 2.1 250 / 41016.0 5.4 25.019.129.0
2017-Mar-28 03:14N 26°11' W 079°24'6 8.2
2017-Mar-28 02:33N 26°07' W 079°29'713.1
2017-Mar-28 02:00N 26°00' W 079°30'612.7 050 / 111020.010.8 22.0
2017-Mar-28 01:33N 26°02' W 079°36'9 8.7
2017-Mar-28 00:33N 25°57' W 079°44'9 8.7
2017-Mar-27 23:33N 25°52' W 079°52'9 8.9
2017-Mar-27 22:33N 25°48' W 080°00'8 8.2
2017-Mar-27 21:33N 25°46' W 080°09'1 0.5
2017-Mar-27 20:32N 25°47' W 080°10'0 0.0
2017-Mar-27 19:31N 25°47' W 080°10'0 0.0
2017-Mar-27 18:31N 25°47' W 080°10'0 0.0
2017-Mar-27 17:33N 25°47' W 080°10'0 0.0
2017-Mar-27 16:33N 25°47' W 080°10'0 0.0
2017-Mar-27 15:26N 25°47' W 080°10'0 0.0
2017-Mar-27 14:29N 25°47' W 080°10'0 0.0
2017-Mar-27 13:32N 25°47' W 080°10'0 0.0
2017-Mar-27 12:28N 25°47' W 080°10'0 0.0
2017-Mar-27 11:31N 25°47' W 080°10'0 0.0
2017-Mar-27 10:33N 25°47' W 080°10'2 2.4
2017-Mar-27 09:34N 25°46' W 080°08'10 9.6
2017-Mar-27 08:34N 25°49' W 079°58'9 8.8
2017-Mar-27 07:33N 25°53' W 079°49'9 8.5
2017-Mar-27 06:34N 25°57' W 079°40'8 8.5
2017-Mar-27 05:33N 26°01' W 079°32'8 8.0
2017-Mar-27 04:33N 26°04' W 079°24'92 2.0
2017-Mar-25 07:00N 25°54' W 077°42'9714.3 060 / 301022.0 21.0
2017-Mar-25 00:12N 26°02' W 079°30'914.5
2017-Mar-24 23:33N 25°57' W 079°39'1514.9
2017-Mar-24 22:33N 25°50' W 079°54'1111.1
2017-Mar-24 21:33N 25°46' W 080°05'4 4.1
2017-Mar-24 20:31N 25°46' W 080°10'0 0.0
2017-Mar-24 19:33N 25°46' W 080°10'0 0.0
2017-Mar-24 18:33N 25°46' W 080°10'0 0.0
2017-Mar-24 17:33N 25°46' W 080°10'0 0.0
2017-Mar-24 16:33N 25°46' W 080°10'0 0.0
2017-Mar-24 15:33N 25°46' W 080°10'0 0.0
2017-Mar-24 14:31N 25°46' W 080°10'0 0.0
2017-Mar-24 13:31N 25°46' W 080°10'0 0.0
2017-Mar-24 12:33N 25°46' W 080°10'0 0.0
2017-Mar-24 11:33N 25°46' W 080°10'0 0.0
2017-Mar-24 10:33N 25°46' W 080°10'2 1.9
2017-Mar-24 09:33N 25°46' W 080°08'8 8.0
2017-Mar-24 08:33N 25°48' W 079°60'8 8.3
2017-Mar-24 07:33N 25°52' W 079°51'8 8.0
2017-Mar-24 06:33N 25°56' W 079°43'8 8.2
2017-Mar-24 05:33N 26°00' W 079°36'9 8.5
2017-Mar-24 04:33N 26°05' W 079°28'8 8.4
2017-Mar-24 03:33N 26°10' W 079°21'  
2017-Mar-21 03:06N 26°09' W 079°27'4 8.2
2017-Mar-21 02:33N 26°06' W 079°30'8 8.2
2017-Mar-21 01:33N 26°01' W 079°37'8 8.2
2017-Mar-21 00:33N 25°56' W 079°45'8 8.6
2017-Mar-20 23:33N 25°51' W 079°53'9 8.7
2017-Mar-20 22:33N 25°47' W 080°01'8 8.1
2017-Mar-20 21:33N 25°47' W 080°10'0 0.3
2017-Mar-20 20:33N 25°47' W 080°10'0 0.0
2017-Mar-20 19:33N 25°47' W 080°10'0 0.0
2017-Mar-20 18:32N 25°47' W 080°10'0 0.0
2017-Mar-20 17:32N 25°47' W 080°10'0 0.0
2017-Mar-20 16:31N 25°47' W 080°10'0 0.0
2017-Mar-20 15:31N 25°47' W 080°10'0 0.0
2017-Mar-20 14:31N 25°47' W 080°10'0 0.0
2017-Mar-20 13:33N 25°47' W 080°10'0 0.0
2017-Mar-20 12:33N 25°47' W 080°10'0 0.0
2017-Mar-20 11:32N 25°47' W 080°10'0 0.0
2017-Mar-20 10:33N 25°47' W 080°10'3 2.8
2017-Mar-20 09:33N 25°46' W 080°07'10 9.8
2017-Mar-20 08:33N 25°49' W 079°57'8 8.3
2017-Mar-20 07:33N 25°53' W 079°49'8 8.1
2017-Mar-20 06:33N 25°56' W 079°41'  
Track history (hours):
 
Tides and Currents Weather Stations Pressure Air Temp Water Temp Dewpoint Dewpoint Depression Visibility Wind Speed Wind Dir Waves Ship Positions

Norwegian Sky (Norway)

Operator: Norwegian Cruise Line

Last reported at 2017-Mar-30 06:00 UTC. Time now 2017-Mar-30 14:44 UTC.
Position N 26°00' W 077°48'.

Length 259 m; draft 8 m.

Type: Ship. MMSI: 308865000.

Wind from 080 at 8 knots

Barometer 1018.0 mb
Air temperature 22.0 ° C
Visibility: greater than 10.8 NM

Date/timePositionNaut miles runAvg speedWind from/ knotsBaromVisibWave heightAir tempDewpointWater temp
2017-Mar-30 06:00N 26°00' W 077°48'32 8.1 080 / 81018.010.8 22.0
2017-Mar-30 02:00N 25°36' W 077°24'5 0.3 050 / 71017.010.8 22.0
2017-Mar-29 07:00N 25°36' W 077°30'44 8.8 110 / 121017.010.8 22.0
2017-Mar-29 02:00N 26°06' W 078°06'37 9.2 090 / 101020.010.8 21.0
2017-Mar-28 22:00N 26°24' W 078°42'40 2.1 250 / 41016.0 5.4 25.019.129.0
2017-Mar-28 03:14N 26°11' W 079°24'6 8.2
2017-Mar-28 02:33N 26°07' W 079°29'713.1
2017-Mar-28 02:00N 26°00' W 079°30'612.7 050 / 111020.010.8 22.0
2017-Mar-28 01:33N 26°02' W 079°36'9 8.7
2017-Mar-28 00:33N 25°57' W 079°44'9 8.7
2017-Mar-27 23:33N 25°52' W 079°52'9 8.9
2017-Mar-27 22:33N 25°48' W 080°00'8 8.2
2017-Mar-27 21:33N 25°46' W 080°09'1 0.5
2017-Mar-27 20:32N 25°47' W 080°10'0 0.0
2017-Mar-27 19:31N 25°47' W 080°10'0 0.0
2017-Mar-27 18:31N 25°47' W 080°10'0 0.0
2017-Mar-27 17:33N 25°47' W 080°10'0 0.0
2017-Mar-27 16:33N 25°47' W 080°10'0 0.0
2017-Mar-27 15:26N 25°47' W 080°10'0 0.0
2017-Mar-27 14:29N 25°47' W 080°10'0 0.0
2017-Mar-27 13:32N 25°47' W 080°10'0 0.0
2017-Mar-27 12:28N 25°47' W 080°10'0 0.0
2017-Mar-27 11:31N 25°47' W 080°10'0 0.0
2017-Mar-27 10:33N 25°47' W 080°10'2 2.4
2017-Mar-27 09:34N 25°46' W 080°08'10 9.6
2017-Mar-27 08:34N 25°49' W 079°58'9 8.8
2017-Mar-27 07:33N 25°53' W 079°49'9 8.5
2017-Mar-27 06:34N 25°57' W 079°40'8 8.5
2017-Mar-27 05:33N 26°01' W 079°32'8 8.0
2017-Mar-27 04:33N 26°04' W 079°24'92 2.0
2017-Mar-25 07:00N 25°54' W 077°42'9714.3 060 / 301022.0 21.0
2017-Mar-25 00:12N 26°02' W 079°30'914.5
2017-Mar-24 23:33N 25°57' W 079°39'1514.9
2017-Mar-24 22:33N 25°50' W 079°54'1111.1
2017-Mar-24 21:33N 25°46' W 080°05'4 4.1
2017-Mar-24 20:31N 25°46' W 080°10'0 0.0
2017-Mar-24 19:33N 25°46' W 080°10'0 0.0
2017-Mar-24 18:33N 25°46' W 080°10'0 0.0
2017-Mar-24 17:33N 25°46' W 080°10'0 0.0
2017-Mar-24 16:33N 25°46' W 080°10'0 0.0
2017-Mar-24 15:33N 25°46' W 080°10'0 0.0
2017-Mar-24 14:31N 25°46' W 080°10'0 0.0
2017-Mar-24 13:31N 25°46' W 080°10'0 0.0
2017-Mar-24 12:33N 25°46' W 080°10'0 0.0
2017-Mar-24 11:33N 25°46' W 080°10'0 0.0
2017-Mar-24 10:33N 25°46' W 080°10'2 1.9
2017-Mar-24 09:33N 25°46' W 080°08'8 8.0
2017-Mar-24 08:33N 25°48' W 079°60'8 8.3
2017-Mar-24 07:33N 25°52' W 079°51'8 8.0
2017-Mar-24 06:33N 25°56' W 079°43'8 8.2
2017-Mar-24 05:33N 26°00' W 079°36'9 8.5
2017-Mar-24 04:33N 26°05' W 079°28'8 8.4
2017-Mar-24 03:33N 26°10' W 079°21'  
2017-Mar-21 03:06N 26°09' W 079°27'4 8.2
2017-Mar-21 02:33N 26°06' W 079°30'8 8.2
2017-Mar-21 01:33N 26°01' W 079°37'8 8.2
2017-Mar-21 00:33N 25°56' W 079°45'8 8.6
2017-Mar-20 23:33N 25°51' W 079°53'9 8.7
2017-Mar-20 22:33N 25°47' W 080°01'8 8.1
2017-Mar-20 21:33N 25°47' W 080°10'0 0.3
2017-Mar-20 20:33N 25°47' W 080°10'0 0.0
2017-Mar-20 19:33N 25°47' W 080°10'0 0.0
2017-Mar-20 18:32N 25°47' W 080°10'0 0.0
2017-Mar-20 17:32N 25°47' W 080°10'0 0.0
2017-Mar-20 16:31N 25°47' W 080°10'0 0.0
2017-Mar-20 15:31N 25°47' W 080°10'0 0.0
2017-Mar-20 14:31N 25°47' W 080°10'0 0.0
2017-Mar-20 13:33N 25°47' W 080°10'0 0.0
2017-Mar-20 12:33N 25°47' W 080°10'0 0.0
2017-Mar-20 11:32N 25°47' W 080°10'0 0.0
2017-Mar-20 10:33N 25°47' W 080°10'3 2.8
2017-Mar-20 09:33N 25°46' W 080°07'10 9.8
2017-Mar-20 08:33N 25°49' W 079°57'8 8.3
2017-Mar-20 07:33N 25°53' W 079°49'8 8.1
2017-Mar-20 06:33N 25°56' W 079°41'  

Dump ship's entire track history